Terminal Aerodrome Forecast
Issued by NWS Cleveland, OH

Home | Current Version | Previous Version | Graphics & Text | Print | Product List | Glossary On
Versions: 1 2 3 4 5 6 7 8 9 10 11 12 13 14 15 16 17 18 19 20
000
FTUS41 KCLE 241700
TAFMFD
TAF
KMFD 241739Z 2418/2518 04005KT P6SM SCT250
     FM250000 07007KT P6SM OVC250
     FM250600 12010KT P6SM BKN040 BKN100
     FM250800 14015KT 3SM -SHRA OVC025
     FM251000 16015G25KT 3SM -SHRA OVC012
     FM251400 22020G32KT P6SM BKN015 BKN040=

USA.gov is the U.S. government's official web portal to all federal, state and local government web resources and services.